Time;durP1;ratioP1;P1;durP2;ratioP2;P2;SDS_P1;SDS_P2;PMS_P1;PMS_P2;Temp;Humidity;BMP_temperature;BMP_pressure;BME280_temperature;BME280_humidity;BME280_pressure;Samples;Min_cycle;Max_cycle;Signal;HPM_P1;HPM_P2
2023/04/16 00:02:16;;;;;;;1.58;1.48;;;6.80;99.90;;;;;;5056227;28;20028;-63
2023/04/16 00:04:41;;;;;;;1.77;1.58;;;6.80;99.90;;;;;;5057744;28;20025;-63
2023/04/16 00:07:07;;;;;;;1.75;1.50;;;6.80;99.90;;;;;;5058748;28;20438;-63
2023/04/16 00:09:33;;;;;;;2.35;1.75;;;6.90;99.90;;;;;;5057100;28;20033;-64
2023/04/16 00:11:59;;;;;;;4.05;2.10;;;6.90;99.90;;;;;;5056912;28;20029;-63
2023/04/16 00:14:25;;;;;;;1.65;1.33;;;6.90;99.90;;;;;;5056007;28;20021;-63
2023/04/16 00:16:50;;;;;;;2.38;1.70;;;6.90;99.90;;;;;;5054979;28;20485;-63
2023/04/16 00:19:16;;;;;;;2.95;2.10;;;6.90;99.90;;;;;;5055594;28;20055;-63
2023/04/16 00:21:41;;;;;;;4.20;1.80;;;6.90;99.90;;;;;;5055183;28;20449;-63
2023/04/16 00:24:07;;;;;;;1.90;1.63;;;6.90;99.90;;;;;;5055336;28;20040;-63
2023/04/16 00:26:33;;;;;;;2.67;1.73;;;6.90;99.90;;;;;;5054637;28;20048;-64
2023/04/16 00:29:00;;;;;;;1.90;1.40;;;6.80;99.90;;;;;;5053355;28;20086;-63
2023/04/16 00:31:30;;;;;;;1.55;1.20;;;6.90;99.90;;;;;;5055705;28;20053;-63
2023/04/16 00:33:56;;;;;;;2.05;1.55;;;6.80;99.90;;;;;;5054908;28;20025;-63
2023/04/16 00:36:26;;;;;;;2.17;1.38;;;6.80;99.90;;;;;;5054971;28;20466;-63
2023/04/16 00:38:52;;;;;;;2.05;1.75;;;6.90;99.90;;;;;;5054686;28;20346;-63
2023/04/16 00:41:18;;;;;;;1.77;1.63;;;6.90;99.90;;;;;;5055395;28;20020;-63
2023/04/16 00:43:43;;;;;;;2.10;1.58;;;6.90;99.90;;;;;;5053143;28;20076;-63
2023/04/16 00:46:10;;;;;;;2.00;1.60;;;6.80;99.90;;;;;;5054979;28;20029;-63
2023/04/16 00:48:37;;;;;;;2.72;1.67;;;6.80;99.90;;;;;;5054656;28;20029;-64
2023/04/16 00:51:04;;;;;;;1.88;1.60;;;6.80;99.90;;;;;;5055025;28;20385;-63
2023/04/16 00:53:30;;;;;;;1.60;1.50;;;6.80;99.90;;;;;;5054864;28;20075;-63
2023/04/16 00:55:56;;;;;;;2.47;1.60;;;6.80;99.90;;;;;;5054445;28;20473;-63
2023/04/16 00:58:22;;;;;;;2.33;1.70;;;6.80;99.90;;;;;;5054856;28;20029;-63
2023/04/16 01:00:49;;;;;;;2.75;1.70;;;6.80;99.90;;;;;;5054414;28;20126;-63
2023/04/16 01:03:14;;;;;;;2.38;1.65;;;6.80;99.90;;;;;;5054414;28;20025;-63
2023/04/16 01:05:40;;;;;;;4.28;1.83;;;6.80;99.90;;;;;;5053926;28;20472;-63
2023/04/16 01:08:06;;;;;;;3.53;2.10;;;6.70;99.90;;;;;;5054462;28;20037;-63
2023/04/16 01:10:31;;;;;;;1.98;1.77;;;6.70;99.90;;;;;;5054969;28;20025;-63
2023/04/16 01:12:57;;;;;;;1.60;1.50;;;6.70;99.90;;;;;;5053528;28;20021;-63
2023/04/16 01:15:23;;;;;;;1.75;1.65;;;6.70;99.90;;;;;;5054704;28;20055;-63
2023/04/16 01:17:48;;;;;;;3.50;2.00;;;6.70;99.90;;;;;;5053926;28;20029;-63
2023/04/16 01:20:14;;;;;;;2.17;1.83;;;6.60;99.90;;;;;;5054340;28;20021;-63
2023/04/16 01:22:40;;;;;;;3.25;2.13;;;6.60;99.90;;;;;;5053852;28;20075;-63
2023/04/16 01:25:05;;;;;;;2.72;1.98;;;6.60;99.90;;;;;;5053988;28;20040;-63
2023/04/16 01:27:31;;;;;;;2.92;2.08;;;6.50;99.90;;;;;;5054153;28;20025;-63
2023/04/16 01:29:57;;;;;;;3.65;2.42;;;6.50;99.90;;;;;;5053729;28;20471;-63
2023/04/16 01:32:22;;;;;;;2.83;2.47;;;6.50;99.90;;;;;;5053531;28;20359;-63
2023/04/16 01:34:48;;;;;;;3.53;2.20;;;6.50;99.90;;;;;;5053172;28;20029;-63
2023/04/16 01:37:14;;;;;;;5.32;3.00;;;6.40;99.90;;;;;;5054094;28;20462;-63
2023/04/16 01:39:40;;;;;;;5.43;3.10;;;6.40;99.90;;;;;;5053320;28;20112;-63
2023/04/16 01:42:05;;;;;;;3.85;3.10;;;6.40;99.90;;;;;;5053810;28;20466;-63
2023/04/16 01:44:31;;;;;;;4.90;3.60;;;6.40;99.90;;;;;;5053680;28;20531;-63
2023/04/16 01:46:57;;;;;;;5.30;3.17;;;6.30;99.90;;;;;;5053440;28;20147;-63
2023/04/16 01:49:22;;;;;;;3.75;2.90;;;6.30;99.90;;;;;;5052483;28;20029;-63
2023/04/16 01:51:48;;;;;;;3.63;2.85;;;6.30;99.90;;;;;;5053514;28;20063;-64
2023/04/16 01:54:14;;;;;;;3.53;2.75;;;6.30;99.90;;;;;;5052527;28;20028;-64
2023/04/16 01:56:39;;;;;;;4.00;3.30;;;6.20;99.90;;;;;;5053424;28;20036;-64
2023/04/16 01:59:05;;;;;;;4.15;3.10;;;6.20;99.90;;;;;;5053763;28;20026;-64
2023/04/16 02:01:31;;;;;;;3.88;3.20;;;6.20;99.90;;;;;;5053691;28;20099;-64
2023/04/16 02:03:57;;;;;;;4.35;3.05;;;6.20;99.90;;;;;;5053283;28;20108;-64
2023/04/16 02:06:22;;;;;;;3.80;3.00;;;6.10;99.90;;;;;;5053493;28;20072;-64
2023/04/16 02:08:48;;;;;;;4.47;3.42;;;6.10;99.90;;;;;;5053083;28;20032;-64
2023/04/16 02:11:14;;;;;;;4.07;3.42;;;6.10;99.90;;;;;;5053094;28;20358;-63
2023/04/16 02:13:40;;;;;;;3.67;3.25;;;6.10;99.90;;;;;;5053084;28;20381;-67
2023/04/16 02:16:06;;;;;;;4.20;3.42;;;6.10;99.90;;;;;;5053378;28;20025;-64
2023/04/16 02:18:31;;;;;;;4.30;3.30;;;6.00;99.90;;;;;;5053068;28;20496;-63
2023/04/16 02:21:01;;;;;;;5.65;4.03;;;6.00;99.90;;;;;;5052505;28;20029;-64
2023/04/16 02:23:26;;;;;;;4.68;3.92;;;6.00;99.90;;;;;;5052162;28;20029;-62
2023/04/16 02:25:52;;;;;;;4.72;3.78;;;6.00;99.90;;;;;;5052495;28;20540;-64
2023/04/16 02:28:18;;;;;;;6.07;3.95;;;6.00;99.90;;;;;;5053513;28;20040;-63
2023/04/16 02:30:44;;;;;;;5.53;4.30;;;6.00;99.90;;;;;;5052792;28;20074;-62
2023/04/16 02:33:10;;;;;;;6.20;3.95;;;5.90;99.90;;;;;;5052948;28;20492;-63
2023/04/16 02:35:37;;;;;;;4.28;3.63;;;5.90;99.90;;;;;;5053056;28;20033;-63
2023/04/16 02:38:04;;;;;;;4.18;3.67;;;5.90;99.90;;;;;;5052307;28;20021;-63
2023/04/16 02:40:30;;;;;;;4.18;3.70;;;5.90;99.90;;;;;;5052884;28;20025;-63
2023/04/16 02:42:57;;;;;;;3.72;2.88;;;6.00;99.90;;;;;;5052587;28;20025;-63
2023/04/16 02:45:23;;;;;;;4.03;3.10;;;6.00;99.90;;;;;;5052342;28;20052;-62
2023/04/16 02:47:50;;;;;;;4.13;3.20;;;6.00;99.90;;;;;;5051120;28;20045;-62
2023/04/16 02:50:16;;;;;;;4.57;3.42;;;6.00;99.90;;;;;;5052862;28;20029;-63
2023/04/16 02:52:42;;;;;;;4.28;3.42;;;6.00;99.90;;;;;;5052731;28;20029;-62
2023/04/16 02:55:08;;;;;;;3.42;3.13;;;6.10;99.90;;;;;;5052599;28;20460;-62
2023/04/16 02:57:34;;;;;;;4.10;3.40;;;6.10;99.90;;;;;;5052806;28;20110;-63
2023/04/16 03:00:00;;;;;;;4.03;3.63;;;6.10;99.90;;;;;;5052222;28;20069;-62
2023/04/16 03:02:26;;;;;;;5.78;3.75;;;6.10;99.90;;;;;;5052649;28;20511;-62
2023/04/16 03:04:52;;;;;;;5.55;3.85;;;6.00;99.90;;;;;;5052187;28;20028;-64
2023/04/16 03:07:18;;;;;;;4.68;3.80;;;6.00;99.90;;;;;;5052259;28;20039;-64
2023/04/16 03:09:43;;;;;;;4.90;3.28;;;6.00;99.90;;;;;;5052610;28;20108;-63
2023/04/16 03:12:09;;;;;;;4.80;3.80;;;6.00;99.90;;;;;;5052634;28;20025;-64
2023/04/16 03:14:35;;;;;;;6.93;4.18;;;6.10;99.90;;;;;;5052473;28;20112;-63
2023/04/16 03:17:01;;;;;;;6.75;4.20;;;6.10;99.90;;;;;;5052152;28;20039;-63
2023/04/16 03:19:26;;;;;;;5.03;4.25;;;6.10;99.90;;;;;;5052247;28;20120;-64
2023/04/16 03:21:52;;;;;;;6.05;3.97;;;6.10;99.90;;;;;;5052142;28;20068;-64
2023/04/16 03:24:18;;;;;;;4.72;3.80;;;6.10;99.90;;;;;;5051861;28;20078;-63
2023/04/16 03:26:43;;;;;;;6.82;4.53;;;6.20;99.90;;;;;;5052044;28;20037;-63
2023/04/16 03:29:09;;;;;;;4.97;4.43;;;6.20;99.90;;;;;;5052041;28;20082;-64
2023/04/16 03:31:35;;;;;;;6.07;4.57;;;6.20;99.90;;;;;;5052434;28;20104;-63
2023/04/16 03:34:00;;;;;;;6.65;4.45;;;6.20;99.90;;;;;;5051958;28;20032;-64
2023/04/16 03:36:26;;;;;;;6.28;4.75;;;6.20;99.90;;;;;;5056080;28;20033;-64
2023/04/16 03:38:52;;;;;;;6.32;4.50;;;6.20;99.90;;;;;;5055936;28;20381;-64
2023/04/16 03:41:18;;;;;;;6.15;4.85;;;6.20;99.90;;;;;;5056339;28;20389;-63
2023/04/16 03:43:43;;;;;;;6.53;4.75;;;6.20;99.90;;;;;;5056111;28;20098;-64
2023/04/16 03:46:09;;;;;;;5.57;4.75;;;6.20;99.90;;;;;;5056047;28;20036;-64
2023/04/16 03:48:35;;;;;;;7.18;5.13;;;6.20;99.90;;;;;;5056242;28;20543;-63
2023/04/16 03:51:01;;;;;;;7.78;5.55;;;6.30;99.90;;;;;;5055826;28;20457;-64
2023/04/16 03:53:27;;;;;;;6.30;5.00;;;6.30;99.90;;;;;;5056242;28;20112;-63
2023/04/16 03:55:52;;;;;;;6.15;5.25;;;6.30;99.90;;;;;;5055742;28;20480;-64
2023/04/16 03:58:18;;;;;;;5.28;4.78;;;6.30;99.90;;;;;;5056553;28;20572;-63
2023/04/16 04:00:44;;;;;;;6.45;5.30;;;6.20;99.90;;;;;;5056241;28;20021;-64
2023/04/16 04:03:10;;;;;;;5.75;4.97;;;6.30;99.90;;;;;;5054240;28;20029;-63
2023/04/16 04:05:40;;;;;;;6.05;5.32;;;6.30;99.90;;;;;;5055815;28;20033;-63
2023/04/16 04:08:06;;;;;;;6.88;5.60;;;6.30;99.90;;;;;;5055482;28;20029;-63
2023/04/16 04:10:33;;;;;;;9.50;5.93;;;6.30;99.90;;;;;;5056080;28;20461;-63
2023/04/16 04:12:59;;;;;;;7.88;5.90;;;6.30;99.90;;;;;;5055522;28;20029;-63
2023/04/16 04:15:25;;;;;;;5.35;4.85;;;6.30;99.90;;;;;;5055190;28;20438;-63
2023/04/16 04:17:50;;;;;;;7.93;5.85;;;6.30;99.90;;;;;;5055311;28;20033;-63
2023/04/16 04:20:16;;;;;;;8.13;6.38;;;6.30;99.90;;;;;;5055296;28;20036;-63
2023/04/16 04:22:42;;;;;;;7.28;5.88;;;6.30;99.90;;;;;;5055741;28;20047;-63
2023/04/16 04:25:09;;;;;;;6.90;5.65;;;6.30;99.90;;;;;;5054015;28;20025;-62
2023/04/16 04:27:35;;;;;;;9.27;5.90;;;6.30;99.90;;;;;;5055347;28;20052;-63
2023/04/16 04:30:01;;;;;;;7.57;6.70;;;6.30;99.90;;;;;;5055122;28;20025;-63
2023/04/16 04:32:27;;;;;;;9.82;7.80;;;6.30;99.90;;;;;;5055400;28;20032;-63
2023/04/16 04:34:52;;;;;;;9.20;7.15;;;6.30;99.90;;;;;;5053748;28;20025;-63
2023/04/16 04:37:18;;;;;;;9.50;7.90;;;6.30;99.90;;;;;;5054990;28;20076;-63
2023/04/16 04:39:44;;;;;;;8.20;7.35;;;6.30;99.90;;;;;;5054024;28;20052;-63
2023/04/16 04:42:09;;;;;;;9.02;7.55;;;6.30;99.90;;;;;;5054876;28;20055;-64
2023/04/16 04:44:35;;;;;;;9.70;7.30;;;6.30;99.90;;;;;;5053879;28;20071;-63
2023/04/16 04:47:01;;;;;;;9.98;7.88;;;6.30;99.90;;;;;;5053405;28;20163;-64
2023/04/16 04:49:26;;;;;;;8.85;7.70;;;6.30;99.90;;;;;;5054847;28;20049;-64
2023/04/16 04:51:52;;;;;;;10.05;8.00;;;6.30;99.90;;;;;;5054637;28;20393;-64
2023/04/16 04:54:17;;;;;;;11.75;8.30;;;6.30;99.90;;;;;;5054945;28;20021;-63
2023/04/16 04:56:44;;;;;;;8.63;7.57;;;6.30;99.90;;;;;;5054972;28;20112;-63
2023/04/16 04:59:10;;;;;;;9.07;7.20;;;6.30;99.90;;;;;;5054482;28;20029;-63
2023/04/16 05:01:37;;;;;;;10.55;7.95;;;6.30;99.90;;;;;;5054891;28;20040;-63
2023/04/16 05:04:03;;;;;;;9.23;7.85;;;6.30;99.90;;;;;;5054719;28;20036;-63
2023/04/16 05:06:28;;;;;;;11.50;8.68;;;6.30;99.90;;;;;;5055057;28;20029;-63
2023/04/16 05:08:54;;;;;;;10.73;9.60;;;6.30;99.90;;;;;;5054035;28;20494;-64
2023/04/16 05:11:20;;;;;;;10.20;8.63;;;6.30;99.90;;;;;;5054621;28;20104;-63
2023/04/16 05:13:45;;;;;;;10.95;9.23;;;6.30;99.90;;;;;;5054728;28;20036;-63
2023/04/16 05:16:11;;;;;;;12.35;10.00;;;6.30;99.90;;;;;;5054495;28;20029;-63
2023/04/16 05:18:37;;;;;;;17.25;10.32;;;6.30;99.90;;;;;;5054255;28;20029;-63
2023/04/16 05:21:02;;;;;;;11.20;9.35;;;6.30;99.90;;;;;;5054075;28;20025;-63
2023/04/16 05:23:28;;;;;;;11.90;10.27;;;6.30;99.90;;;;;;5054607;28;20033;-63
2023/04/16 05:25:54;;;;;;;13.07;10.35;;;6.30;99.90;;;;;;5056923;28;20496;-67
2023/04/16 05:28:19;;;;;;;11.68;10.43;;;6.40;99.90;;;;;;5057798;28;20117;-63
2023/04/16 05:30:45;;;;;;;12.07;10.10;;;6.40;99.90;;;;;;5055017;28;20108;-63
2023/04/16 05:33:11;;;;;;;12.80;10.73;;;6.40;99.90;;;;;;5054041;28;20047;-63
2023/04/16 05:35:36;;;;;;;12.10;9.30;;;6.40;99.90;;;;;;5054134;28;20028;-63
2023/04/16 05:38:03;;;;;;;11.55;9.63;;;6.50;99.90;;;;;;5053364;28;20017;-63
2023/04/16 05:40:29;;;;;;;13.38;10.15;;;6.50;99.90;;;;;;5054252;28;20025;-63
2023/04/16 05:42:55;;;;;;;11.95;10.27;;;6.50;99.90;;;;;;5052733;28;20025;-63
2023/04/16 05:45:20;;;;;;;11.95;9.65;;;6.60;99.90;;;;;;5054166;28;20063;-63
2023/04/16 05:47:46;;;;;;;11.75;9.52;;;6.60;99.90;;;;;;5053813;28;20064;-63
2023/04/16 05:50:12;;;;;;;9.98;8.98;;;6.60;99.90;;;;;;5053076;28;20477;-63
2023/04/16 05:52:38;;;;;;;11.85;9.68;;;6.70;99.90;;;;;;5053839;28;20028;-63
2023/04/16 05:55:04;;;;;;;11.73;9.48;;;6.70;99.90;;;;;;5052163;28;20482;-63
2023/04/16 05:57:30;;;;;;;11.30;8.93;;;6.80;99.90;;;;;;5053553;28;20029;-63
2023/04/16 05:59:55;;;;;;;11.00;9.35;;;6.80;99.90;;;;;;5053714;28;20071;-63
2023/04/16 06:02:21;;;;;;;13.07;9.75;;;6.90;99.90;;;;;;5053206;28;20112;-63
2023/04/16 06:04:47;;;;;;;11.48;9.48;;;6.90;99.90;;;;;;5053514;28;20029;-63
2023/04/16 06:07:12;;;;;;;11.00;9.68;;;7.00;99.90;;;;;;5051771;28;20091;-63
2023/04/16 06:09:38;;;;;;;13.20;10.68;;;7.00;99.90;;;;;;5053537;28;20455;-63
2023/04/16 06:12:04;;;;;;;12.70;9.93;;;7.10;99.90;;;;;;5053136;28;20033;-63
2023/04/16 06:14:29;;;;;;;12.50;9.80;;;7.20;99.90;;;;;;5053134;28;20480;-63
2023/04/16 06:16:55;;;;;;;15.27;10.20;;;7.20;99.90;;;;;;5053310;28;20033;-63
2023/04/16 06:19:21;;;;;;;11.93;10.38;;;7.30;99.90;;;;;;5050621;28;20039;-63
2023/04/16 06:21:46;;;;;;;14.18;10.68;;;7.30;99.90;;;;;;5052079;28;20029;-63
2023/04/16 06:24:12;;;;;;;12.68;10.00;;;7.40;99.90;;;;;;5052916;28;20029;-63
2023/04/16 06:26:38;;;;;;;12.60;9.65;;;7.50;99.90;;;;;;5053299;28;20029;-63
2023/04/16 06:29:03;;;;;;;12.27;10.48;;;7.50;99.90;;;;;;5052781;28;20033;-63
2023/04/16 06:31:30;;;;;;;12.55;10.27;;;7.60;99.90;;;;;;5051608;28;20021;-63
2023/04/16 06:33:55;;;;;;;12.75;10.65;;;7.70;99.90;;;;;;5053149;28;20047;-63
2023/04/16 06:36:21;;;;;;;12.55;10.52;;;7.80;99.90;;;;;;5051398;28;20454;-63
2023/04/16 06:38:47;;;;;;;12.55;10.13;;;8.00;99.90;;;;;;5052651;28;20032;-63
2023/04/16 06:41:15;;;;;;;13.90;9.82;;;8.00;99.90;;;;;;5052286;28;20025;-63
2023/04/16 06:43:41;;;;;;;13.43;10.70;;;8.20;99.90;;;;;;5052840;28;20116;-63
2023/04/16 06:46:06;;;;;;;11.63;9.15;;;8.30;99.90;;;;;;5052373;28;20156;-65
2023/04/16 06:48:32;;;;;;;12.90;9.63;;;8.40;99.90;;;;;;5053020;28;20457;-63
2023/04/16 06:50:58;;;;;;;11.38;8.70;;;8.50;99.90;;;;;;5051594;28;20380;-63
2023/04/16 06:53:24;;;;;;;12.15;9.02;;;8.60;99.90;;;;;;5052453;28;20021;-63
2023/04/16 06:55:50;;;;;;;13.48;9.20;;;8.80;99.90;;;;;;5052786;28;20032;-63
2023/04/16 06:58:16;;;;;;;12.98;9.55;;;9.00;99.90;;;;;;5051001;28;20078;-63
2023/04/16 07:00:42;;;;;;;11.18;9.65;;;9.20;99.90;;;;;;5052701;28;20025;-63
2023/04/16 07:03:07;;;;;;;11.10;8.95;;;9.40;99.90;;;;;;5052360;28;20025;-64
2023/04/16 07:05:33;;;;;;;10.98;9.13;;;9.60;99.90;;;;;;5052378;28;20060;-63
2023/04/16 07:07:58;;;;;;;11.02;9.38;;;9.90;99.90;;;;;;5052602;28;20123;-63
2023/04/16 07:10:24;;;;;;;11.25;9.65;;;10.10;99.90;;;;;;5051720;28;20056;-63
2023/04/16 07:12:50;;;;;;;10.93;8.77;;;10.20;99.90;;;;;;5052910;28;20508;-63
2023/04/16 07:15:16;;;;;;;9.73;8.48;;;10.30;99.90;;;;;;5051758;28;20021;-63
2023/04/16 07:17:41;;;;;;;10.95;9.25;;;10.60;99.90;;;;;;5052580;28;20029;-63
2023/04/16 07:20:07;;;;;;;9.70;8.30;;;10.80;99.90;;;;;;5050544;28;20028;-64
2023/04/16 07:22:33;;;;;;;11.05;8.68;;;11.00;99.90;;;;;;5051174;28;20032;-64
2023/04/16 07:24:59;;;;;;;8.30;7.50;;;11.20;99.90;;;;;;5052215;28;20417;-64
2023/04/16 07:27:24;;;;;;;10.90;7.85;;;11.30;99.90;;;;;;5050676;28;20458;-64
2023/04/16 07:29:50;;;;;;;10.30;8.18;;;11.20;99.90;;;;;;5050969;28;20036;-62
2023/04/16 07:32:16;;;;;;;9.57;8.57;;;11.20;99.90;;;;;;5051919;28;20071;-64
2023/04/16 07:34:41;;;;;;;8.57;7.55;;;11.10;99.90;;;;;;5051033;28;20025;-63
2023/04/16 07:37:07;;;;;;;7.53;6.72;;;11.20;99.90;;;;;;5051906;28;20029;-64
2023/04/16 07:39:33;;;;;;;7.63;6.22;;;11.10;99.90;;;;;;5052011;28;20108;-63
2023/04/16 07:41:59;;;;;;;7.82;6.63;;;11.00;99.90;;;;;;5052178;28;20450;-62
2023/04/16 07:44:25;;;;;;;8.23;6.00;;;11.10;99.90;;;;;;5052021;28;20048;-64
2023/04/16 07:46:51;;;;;;;6.47;5.78;;;11.30;99.90;;;;;;5051831;28;20106;-64
2023/04/16 07:49:17;;;;;;;6.22;5.53;;;11.30;99.90;;;;;;5051869;28;20033;-62
2023/04/16 07:51:42;;;;;;;5.88;5.10;;;11.40;99.90;;;;;;5052344;28;20112;-63
2023/04/16 07:54:08;;;;;;;5.72;4.68;;;11.30;99.90;;;;;;5051722;28;20028;-63
2023/04/16 07:56:34;;;;;;;5.15;4.65;;;11.20;99.90;;;;;;5052174;28;20103;-63
2023/04/16 07:59:00;;;;;;;6.63;5.20;;;11.10;99.90;;;;;;5051893;28;20179;-63
2023/04/16 08:01:26;;;;;;;5.43;4.57;;;11.10;99.90;;;;;;5051737;28;20207;-64
2023/04/16 08:03:51;;;;;;;6.03;4.40;;;11.00;99.90;;;;;;5051991;28;20029;-63
2023/04/16 08:06:17;;;;;;;6.05;4.13;;;11.00;99.90;;;;;;5051635;28;20037;-63
2023/04/16 08:08:43;;;;;;;5.15;4.65;;;11.00;99.90;;;;;;5051879;28;20033;-63
2023/04/16 08:11:08;;;;;;;5.35;4.40;;;11.20;99.90;;;;;;5051320;28;20021;-64
2023/04/16 08:13:34;;;;;;;5.53;4.68;;;11.30;99.90;;;;;;5052108;28;20034;-64
2023/04/16 08:16:00;;;;;;;5.07;4.13;;;11.30;99.90;;;;;;5050764;28;20060;-63
2023/04/16 08:18:26;;;;;;;4.65;4.03;;;11.20;99.90;;;;;;5051461;28;20462;-64
2023/04/16 08:20:52;;;;;;;6.63;4.15;;;11.10;99.90;;;;;;5052116;28;20032;-62
2023/04/16 08:23:17;;;;;;;5.00;4.35;;;11.00;99.90;;;;;;5054635;28;20099;-63
2023/04/16 08:25:43;;;;;;;5.50;4.90;;;11.00;99.90;;;;;;5055747;28;20510;-63
2023/04/16 08:28:09;;;;;;;7.30;6.50;;;11.00;99.90;;;;;;5055009;28;20385;-63
2023/04/16 08:30:35;;;;;;;7.97;6.82;;;11.10;99.90;;;;;;5054896;28;20029;-63
2023/04/16 08:33:00;;;;;;;7.55;6.75;;;11.10;99.90;;;;;;5055220;28;20078;-63
2023/04/16 08:35:26;;;;;;;7.80;7.00;;;11.10;99.90;;;;;;5054925;28;20040;-63
2023/04/16 08:37:52;;;;;;;8.35;7.45;;;11.10;99.90;;;;;;5055320;28;20461;-63
2023/04/16 08:40:18;;;;;;;9.43;7.60;;;11.10;99.90;;;;;;5054885;28;20029;-63
2023/04/16 08:42:57;;;;;;;9.20;7.40;;;11.00;99.90;;;;;;5055173;28;20029;-63
2023/04/16 08:45:25;;;;;;;6.85;6.15;;;11.00;99.90;;;;;;5054772;28;20068;-62
2023/04/16 08:47:52;;;;;;;9.05;7.07;;;10.90;99.90;;;;;;5054772;28;20138;-62
2023/04/16 08:50:22;;;;;;;6.00;5.13;;;10.90;99.90;;;;;;5054559;28;20037;-62
2023/04/16 08:53:03;;;;;;;7.35;5.43;;;10.90;99.90;;;;;;5055106;28;20083;-62
2023/04/16 08:55:50;;;;;;;5.93;5.32;;;10.80;99.90;;;;;;5054811;28;20033;-65
2023/04/16 08:58:21;;;;;;;6.43;5.82;;;10.80;99.90;;;;;;5054211;28;20397;-63
2023/04/16 09:00:47;;;;;;;7.22;6.30;;;10.70;99.90;;;;;;5054753;28;20040;-62
2023/04/16 09:03:14;;;;;;;8.07;6.95;;;10.70;99.90;;;;;;5054396;28;20037;-63
2023/04/16 09:05:41;;;;;;;6.85;6.15;;;10.70;99.90;;;;;;5054662;28;20171;-63
2023/04/16 09:08:07;;;;;;;6.28;5.68;;;10.70;99.90;;;;;;5054724;28;20033;-63
2023/04/16 09:10:34;;;;;;;8.10;6.18;;;10.70;99.90;;;;;;5054221;28;20351;-63
2023/04/16 09:13:00;;;;;;;6.18;5.57;;;10.70;99.90;;;;;;5054224;28;20535;-63
2023/04/16 09:15:26;;;;;;;5.90;5.30;;;10.70;99.90;;;;;;5054239;28;20025;-63
2023/04/16 09:17:52;;;;;;;5.10;4.60;;;10.70;99.90;;;;;;5054579;28;20033;-63
2023/04/16 09:20:19;;;;;;;5.47;4.82;;;10.70;99.90;;;;;;5052858;28;20187;-62
2023/04/16 09:22:45;;;;;;;4.55;3.55;;;10.80;99.90;;;;;;5054581;28;20052;-62
2023/04/16 09:25:11;;;;;;;5.07;4.03;;;10.80;99.90;;;;;;5054475;28;20037;-62
2023/04/16 09:27:38;;;;;;;5.10;4.35;;;10.80;99.90;;;;;;5054431;28;20043;-62
2023/04/16 09:30:26;;;;;;;4.45;3.97;;;10.80;99.90;;;;;;5054324;28;20067;-62
2023/04/16 09:33:11;;;;;;;5.05;3.60;;;10.80;99.90;;;;;;5053765;28;20031;-62
2023/04/16 09:35:47;;;;;;;5.97;4.43;;;10.80;99.90;;;;;;5053616;28;20044;-62
2023/04/16 09:38:12;;;;;;;3.78;3.35;;;10.80;99.90;;;;;;5053904;28;20033;-66
2023/04/16 09:40:39;;;;;;;4.22;3.83;;;10.80;99.90;;;;;;5053453;28;20381;-63
2023/04/16 09:43:12;;;;;;;4.93;3.90;;;10.70;99.90;;;;;;5054157;28;20068;-63
2023/04/16 09:45:52;;;;;;;5.47;3.90;;;10.70;99.90;;;;;;5054086;28;20450;-62
2023/04/16 09:48:31;;;;;;;3.80;3.28;;;10.70;99.90;;;;;;5053507;28;20099;-62
2023/04/16 09:51:00;;;;;;;3.25;2.75;;;10.70;99.90;;;;;;5053612;28;20116;-64
2023/04/16 09:53:30;;;;;;;2.78;2.53;;;10.70;99.90;;;;;;5053508;28;20466;-63
2023/04/16 09:56:00;;;;;;;3.30;2.58;;;10.70;98.40;;;;;;5053559;28;20477;-64
2023/04/16 09:58:27;;;;;;;2.80;2.60;;;10.70;98.80;;;;;;5052225;28;20025;-62
2023/04/16 10:01:06;;;;;;;3.00;2.75;;;10.70;97.30;;;;;;5053476;28;20531;-61
2023/04/16 10:03:33;;;;;;;3.08;2.47;;;10.70;99.40;;;;;;5053250;28;20028;-62
2023/04/16 10:06:14;;;;;;;2.88;2.60;;;10.80;99.90;;;;;;5053104;28;20104;-63
2023/04/16 10:08:47;;;;;;;4.63;2.53;;;10.90;99.90;;;;;;5053809;28;20052;-63
2023/04/16 10:11:13;;;;;;;3.38;2.83;;;11.00;99.90;;;;;;5053466;28;20087;-63
2023/04/16 10:13:39;;;;;;;3.10;2.85;;;11.10;98.90;;;;;;5052801;28;20104;-63
2023/04/16 10:16:06;;;;;;;3.28;2.97;;;11.10;99.70;;;;;;5053380;28;20059;-63
2023/04/16 10:18:34;;;;;;;2.65;2.45;;;11.30;99.50;;;;;;5053078;28;20074;-64
2023/04/16 10:21:01;;;;;;;3.80;3.40;;;11.40;98.80;;;;;;5053418;28;20048;-65
2023/04/16 10:23:26;;;;;;;3.90;3.50;;;11.50;97.20;;;;;;5052957;28;20033;-63
2023/04/16 10:25:54;;;;;;;4.10;3.33;;;11.60;98.40;;;;;;5052950;28;20373;-64
2023/04/16 10:28:19;;;;;;;3.97;3.35;;;11.70;98.20;;;;;;5052776;28;20531;-63
2023/04/16 10:30:57;;;;;;;3.85;3.30;;;11.80;97.30;;;;;;5053243;28;20032;-63
2023/04/16 10:33:27;;;;;;;3.00;2.70;;;12.00;96.70;;;;;;5051649;28;20039;-64
2023/04/16 10:36:13;;;;;;;3.95;3.40;;;12.10;95.80;;;;;;5053302;28;20021;-63
2023/04/16 10:38:52;;;;;;;3.88;3.42;;;12.20;95.60;;;;;;5052227;28;20370;-64
2023/04/16 10:41:19;;;;;;;3.78;3.38;;;12.20;95.40;;;;;;5052722;28;20478;-66
2023/04/16 10:43:48;;;;;;;4.18;3.30;;;12.30;94.00;;;;;;5052707;28;20049;-64
2023/04/16 10:46:20;;;;;;;3.40;3.10;;;12.50;96.60;;;;;;5051355;28;20507;-62
2023/04/16 10:48:47;;;;;;;3.05;2.75;;;12.60;96.70;;;;;;5052857;28;20430;-63
2023/04/16 10:51:39;;;;;;;2.72;2.47;;;12.70;94.70;;;;;;5051612;28;20057;-64
2023/04/16 10:54:10;;;;;;;2.90;2.60;;;12.80;93.60;;;;;;5051716;28;20050;-63
2023/04/16 10:56:36;;;;;;;3.65;2.85;;;12.70;92.70;;;;;;5052195;28;20382;-64
2023/04/16 10:59:09;;;;;;;3.30;2.80;;;12.90;92.00;;;;;;5052825;28;20032;-63
2023/04/16 11:01:37;;;;;;;4.53;3.63;;;12.90;92.20;;;;;;5052437;28;20028;-64
2023/04/16 11:04:23;;;;;;;3.80;3.38;;;12.90;91.30;;;;;;5053072;28;20033;-65
2023/04/16 11:07:10;;;;;;;5.28;3.80;;;12.90;90.90;;;;;;5052322;28;20032;-64
2023/04/16 11:10:01;;;;;;;4.57;3.17;;;12.90;90.80;;;;;;5052151;28;20029;-63
2023/04/16 11:12:43;;;;;;;3.42;3.10;;;12.90;91.90;;;;;;5052366;28;20033;-63
2023/04/16 11:15:13;;;;;;;4.55;3.35;;;13.00;93.30;;;;;;5052655;28;20036;-63
2023/04/16 11:17:44;;;;;;;2.88;2.42;;;13.00;93.40;;;;;;5051928;28;20353;-64
2023/04/16 11:20:20;;;;;;;3.58;2.60;;;13.10;91.80;;;;;;5050570;28;20029;-63
2023/04/16 11:22:47;;;;;;;3.35;2.65;;;13.10;92.90;;;;;;5052530;28;20057;-63
2023/04/16 11:25:19;;;;;;;2.83;2.45;;;13.10;89.10;;;;;;5052556;28;20032;-64
2023/04/16 11:27:45;;;;;;;2.65;2.25;;;13.10;90.80;;;;;;5052260;28;20061;-64
2023/04/16 11:30:10;;;;;;;3.67;2.15;;;13.10;90.10;;;;;;5052426;28;20069;-62
2023/04/16 11:32:37;;;;;;;2.50;2.17;;;13.00;90.00;;;;;;5051723;28;20025;-64
2023/04/16 11:35:12;;;;;;;2.55;2.35;;;13.00;91.00;;;;;;5052380;28;20029;-64
2023/04/16 11:37:38;;;;;;;2.30;2.10;;;13.00;91.00;;;;;;5052683;28;20116;-64
2023/04/16 11:40:08;;;;;;;2.42;2.13;;;13.00;90.60;;;;;;5051257;28;20036;-63
2023/04/16 11:42:41;;;;;;;3.90;1.97;;;13.10;90.20;;;;;;5052720;28;20028;-62
2023/04/16 11:45:11;;;;;;;2.13;1.95;;;13.10;90.30;;;;;;5052476;28;20064;-64
2023/04/16 11:47:49;;;;;;;3.60;2.67;;;13.20;89.60;;;;;;5050599;28;20052;-64
2023/04/16 11:50:22;;;;;;;3.15;2.20;;;13.20;88.60;;;;;;5052472;28;20112;-63
2023/04/16 11:52:52;;;;;;;2.60;2.40;;;13.30;91.60;;;;;;5052344;28;20106;-64
2023/04/16 11:55:19;;;;;;;2.85;2.40;;;13.20;86.80;;;;;;5052866;28;20032;-64
2023/04/16 11:57:45;;;;;;;2.53;2.22;;;13.30;87.20;;;;;;5055657;28;20040;-63
2023/04/16 12:00:14;;;;;;;2.53;2.30;;;13.30;87.30;;;;;;5056132;28;20025;-63
2023/04/16 12:02:48;;;;;;;2.40;2.00;;;13.40;89.60;;;;;;5055618;28;20107;-63
2023/04/16 12:05:32;;;;;;;2.80;2.05;;;13.60;90.00;;;;;;5056011;28;20057;-63
2023/04/16 12:07:59;;;;;;;3.15;2.17;;;13.70;83.80;;;;;;5055913;28;20036;-64
2023/04/16 12:10:26;;;;;;;2.15;1.95;;;13.80;87.90;;;;;;5055408;28;20029;-64
2023/04/16 12:12:51;;;;;;;2.55;2.17;;;13.70;86.10;;;;;;5055660;28;20037;-63
2023/04/16 12:15:17;;;;;;;2.60;2.20;;;13.70;86.50;;;;;;5054506;28;20036;-64
2023/04/16 12:17:43;;;;;;;2.50;2.15;;;13.70;84.90;;;;;;5055360;28;20489;-64
2023/04/16 12:20:16;;;;;;;2.30;2.03;;;13.70;84.30;;;;;;5055404;28;20025;-63
2023/04/16 12:22:48;;;;;;;2.10;1.90;;;13.70;85.20;;;;;;5055259;28;20035;-64
2023/04/16 12:25:15;;;;;;;2.60;1.98;;;13.70;83.20;;;;;;5055435;28;20027;-63
2023/04/16 12:27:47;;;;;;;1.90;1.70;;;13.70;83.10;;;;;;5055018;28;20140;-63
2023/04/16 12:30:14;;;;;;;1.90;1.80;;;13.60;83.40;;;;;;5055269;28;20044;-62
2023/04/16 12:32:41;;;;;;;2.08;1.67;;;13.60;81.50;;;;;;5054862;28;20032;-62
2023/04/16 12:35:11;;;;;;;2.17;1.77;;;13.50;79.20;;;;;;5055318;28;20032;-64
2023/04/16 12:37:37;;;;;;;1.90;1.70;;;13.50;80.20;;;;;;5054784;28;20036;-64
2023/04/16 12:40:04;;;;;;;1.88;1.67;;;13.50;78.80;;;;;;5054455;28;20422;-63
2023/04/16 12:42:34;;;;;;;1.70;1.60;;;13.50;82.20;;;;;;5054684;28;20025;-64
2023/04/16 12:45:04;;;;;;;2.97;1.80;;;13.50;81.50;;;;;;5054699;28;20045;-63
2023/04/16 12:47:31;;;;;;;1.85;1.70;;;13.40;79.10;;;;;;5054607;28;20032;-64
2023/04/16 12:49:57;;;;;;;2.20;1.88;;;13.40;81.00;;;;;;5054915;28;20047;-63
2023/04/16 12:52:23;;;;;;;2.00;1.67;;;13.40;82.50;;;;;;5055039;28;20124;-64